Aviation Digital Data Service (ADDS)

Output produced by METARs form (0015 UTC 01 December 2022)
found at http://aviationweather.gov/metar/data/
 
KAMA 302340Z 0100/0124 18016KT P6SM BKN200 
     FM011600 20018G28KT P6SM FEW250